createdAt,value
2024-05-09T00:00:36.435Z,57.90
2024-05-09T00:03:11.262Z,58.20
2024-05-09T00:05:43.646Z,58.40
2024-05-09T00:08:11.509Z,57.80
2024-05-09T00:10:40.300Z,58.10
2024-05-09T00:13:08.863Z,58.10
2024-05-09T00:15:36.608Z,57.90
2024-05-09T00:18:05.306Z,58.10
2024-05-09T00:20:38.663Z,58.20
2024-05-09T00:23:12.631Z,58.40
2024-05-09T00:25:42.502Z,58.30
2024-05-09T00:28:09.931Z,58.90
2024-05-09T00:30:37.611Z,58.40
2024-05-09T00:33:09.801Z,58.80
2024-05-09T00:35:38.387Z,59.10
2024-05-09T00:38:05.831Z,59.10
2024-05-09T00:40:41.986Z,59.40
2024-05-09T00:43:14.663Z,59.50
2024-05-09T00:45:42.762Z,59.40
2024-05-09T00:48:14.110Z,59.60
2024-05-09T00:50:45.229Z,59.50
2024-05-09T00:53:14.366Z,59.40
2024-05-09T00:55:41.995Z,59.70
2024-05-09T00:58:12.310Z,59.30
2024-05-09T01:00:41.457Z,59.30
2024-05-09T01:03:11.800Z,59.40
2024-05-09T01:05:41.047Z,59.50
2024-05-09T01:08:10.942Z,59.40
2024-05-09T01:10:38.215Z,59.80
2024-05-09T01:13:06.178Z,59.70
2024-05-09T01:15:34.613Z,59.50
2024-05-09T01:18:07.160Z,59.80
2024-05-09T01:20:41.331Z,59.40
2024-05-09T01:23:11.768Z,59.60
2024-05-09T01:25:39.182Z,60.20
2024-05-09T01:28:06.725Z,59.70
2024-05-09T01:30:36.324Z,59.90
2024-05-09T01:33:10.162Z,59.90
2024-05-09T01:35:41.335Z,60.00
2024-05-09T01:38:10.045Z,60.10
2024-05-09T01:40:39.744Z,59.90
2024-05-09T01:43:09.383Z,60.40
2024-05-09T01:45:38.023Z,60.60
2024-05-09T01:48:05.523Z,60.40
2024-05-09T01:50:38.876Z,60.30
2024-05-09T01:53:14.462Z,60.30
2024-05-09T01:55:42.601Z,60.50
2024-05-09T01:58:10.012Z,60.60
2024-05-09T02:00:40.919Z,60.60
2024-05-09T02:03:13.927Z,60.80
2024-05-09T02:05:44.815Z,60.50
2024-05-09T02:08:22.217Z,60.50
2024-05-09T02:10:50.472Z,60.70
2024-05-09T02:13:17.891Z,60.70
2024-05-09T02:15:45.232Z,60.30
2024-05-09T02:18:13.115Z,60.70
2024-05-09T02:20:41.636Z,60.30
2024-05-09T02:23:09.972Z,60.70
2024-05-09T02:25:37.335Z,60.40
2024-05-09T02:28:04.527Z,60.80
2024-05-09T02:30:39.394Z,60.90
2024-05-09T02:33:11.443Z,60.90
2024-05-09T02:35:40.853Z,60.70
2024-05-09T02:38:09.458Z,61.20
2024-05-09T02:40:38.902Z,60.70
2024-05-09T02:43:08.262Z,60.80
2024-05-09T02:45:36.051Z,61.20
2024-05-09T02:48:03.266Z,60.90
2024-05-09T02:50:37.346Z,61.10
2024-05-09T02:53:14.285Z,61.40
2024-05-09T02:55:42.444Z,61.20
2024-05-09T02:58:10.534Z,61.30
2024-05-09T03:00:41.141Z,61.90
2024-05-09T03:03:14.621Z,61.80
2024-05-09T03:05:44.388Z,62.30
2024-05-09T03:08:11.976Z,61.70
2024-05-09T03:10:39.718Z,61.90
2024-05-09T03:13:12.974Z,61.90
2024-05-09T03:15:41.664Z,62.30
2024-05-09T03:18:09.176Z,61.80
2024-05-09T03:20:37.241Z,62.20
2024-05-09T03:23:05.792Z,62.20
2024-05-09T03:25:33.591Z,61.70
2024-05-09T03:28:00.748Z,61.50
2024-05-09T03:30:38.193Z,62.10
2024-05-09T03:33:15.323Z,62.00
2024-05-09T03:35:47.284Z,62.10
2024-05-09T03:38:14.576Z,61.80
2024-05-09T03:40:46.688Z,61.80
2024-05-09T03:43:14.130Z,62.10
2024-05-09T03:45:44.517Z,62.40
2024-05-09T03:48:11.992Z,62.50
2024-05-09T03:50:39.352Z,62.20
2024-05-09T03:53:09.555Z,62.00
2024-05-09T03:55:36.642Z,62.20
2024-05-09T03:58:03.647Z,62.40
2024-05-09T04:00:36.956Z,62.70
2024-05-09T04:03:11.332Z,62.80
2024-05-09T04:05:41.909Z,63.00
2024-05-09T04:08:10.851Z,63.20
2024-05-09T04:10:38.135Z,62.90
2024-05-09T04:13:05.658Z,63.00
2024-05-09T04:15:32.872Z,62.80
2024-05-09T04:18:00.351Z,62.70
2024-05-09T04:20:37.014Z,62.40
2024-05-09T04:23:08.349Z,62.80
2024-05-09T04:25:36.316Z,63.00
2024-05-09T04:28:03.398Z,63.10
2024-05-09T04:30:37.126Z,62.80
2024-05-09T04:33:08.967Z,63.20
2024-05-09T04:35:38.293Z,63.00
2024-05-09T04:38:06.285Z,63.10
2024-05-09T04:40:36.095Z,62.80
2024-05-09T04:43:13.602Z,62.90
2024-05-09T04:45:41.028Z,62.90
2024-05-09T04:48:08.782Z,62.80
2024-05-09T04:50:38.721Z,62.80
2024-05-09T04:53:09.226Z,62.70
2024-05-09T04:55:37.691Z,63.00
2024-05-09T04:58:05.798Z,63.00
2024-05-09T05:00:37.074Z,63.20
2024-05-09T05:03:08.139Z,63.20
2024-05-09T05:05:42.694Z,63.10
2024-05-09T05:08:15.016Z,63.20
2024-05-09T05:10:43.201Z,63.20
2024-05-09T05:13:20.856Z,63.30
2024-05-09T05:15:56.583Z,63.50
2024-05-09T05:18:25.437Z,63.30
2024-05-09T05:20:52.683Z,62.80
2024-05-09T05:23:21.262Z,62.60
2024-05-09T05:25:50.186Z,62.40
2024-05-09T05:28:17.630Z,61.40
2024-05-09T05:30:45.254Z,61.80
2024-05-09T05:33:14.728Z,61.20
2024-05-09T05:35:42.607Z,61.00
2024-05-09T05:38:10.786Z,61.20
2024-05-09T05:40:39.334Z,60.80
2024-05-09T05:43:11.262Z,60.10
2024-05-09T05:45:39.236Z,60.00
2024-05-09T05:48:07.471Z,60.20
2024-05-09T05:50:37.424Z,59.70
2024-05-09T05:53:10.080Z,59.10
2024-05-09T05:55:39.326Z,59.30
2024-05-09T05:58:10.205Z,59.30
2024-05-09T06:00:39.353Z,58.70
2024-05-09T06:03:12.735Z,58.60
2024-05-09T06:05:40.998Z,58.40
2024-05-09T06:08:08.695Z,58.50
2024-05-09T06:10:39.417Z,57.80
2024-05-09T06:13:12.704Z,57.20
2024-05-09T06:15:41.134Z,56.30
2024-05-09T06:18:10.596Z,56.00
2024-05-09T06:20:40.265Z,56.80
2024-05-09T06:23:08.585Z,57.10
2024-05-09T06:25:36.713Z,56.40
2024-05-09T06:28:04.663Z,56.60
2024-05-09T06:30:40.113Z,55.70
2024-05-09T06:33:11.923Z,54.50
2024-05-09T06:35:41.071Z,54.10
2024-05-09T06:38:11.756Z,54.20
2024-05-09T06:40:42.591Z,54.40
2024-05-09T06:43:14.718Z,53.70
2024-05-09T06:45:42.772Z,53.40
2024-05-09T06:48:11.719Z,53.20
2024-05-09T06:50:40.585Z,52.90
2024-05-09T06:53:08.677Z,52.90
2024-05-09T06:55:37.458Z,52.90
2024-05-09T06:58:07.242Z,52.50
2024-05-09T07:00:39.194Z,52.50
2024-05-09T07:03:13.848Z,52.70
2024-05-09T07:05:43.425Z,52.50
2024-05-09T07:08:10.955Z,52.70
2024-05-09T07:10:38.660Z,52.30
2024-05-09T07:13:13.223Z,52.50
2024-05-09T07:15:41.353Z,52.20
2024-05-09T07:18:11.031Z,51.90
2024-05-09T07:20:39.334Z,51.70
2024-05-09T07:23:10.016Z,51.60
2024-05-09T07:25:40.141Z,51.30
2024-05-09T07:28:14.590Z,51.40
2024-05-09T07:30:42.847Z,51.50
2024-05-09T07:33:15.611Z,51.90
2024-05-09T07:35:42.928Z,51.00
2024-05-09T07:38:10.088Z,49.00
2024-05-09T07:40:38.718Z,49.00
2024-05-09T07:43:08.355Z,48.50
2024-05-09T07:53:37.056Z,46.60
2024-05-09T07:55:57.230Z,46.40
2024-05-09T07:58:27.876Z,45.10
2024-05-09T08:00:55.229Z,44.30
2024-05-09T08:03:23.288Z,44.00
2024-05-09T08:05:51.919Z,44.30
2024-05-09T08:08:19.011Z,44.50
2024-05-09T08:10:46.555Z,43.70
2024-05-09T08:13:13.848Z,43.60
2024-05-09T08:15:41.062Z,43.10
2024-05-09T08:18:09.784Z,43.30
2024-05-09T08:20:41.443Z,43.40
2024-05-09T08:23:08.565Z,44.00
2024-05-09T08:25:36.143Z,43.60
2024-05-09T08:28:05.222Z,43.30
2024-05-09T08:30:36.898Z,43.70
2024-05-09T08:33:06.603Z,43.50
2024-05-09T08:35:35.057Z,43.10
2024-05-09T08:38:07.426Z,43.30
2024-05-09T08:40:37.510Z,42.80
2024-05-09T08:43:10.433Z,42.80
2024-05-09T08:45:44.753Z,42.20
2024-05-09T08:48:15.244Z,42.10
2024-05-09T08:50:44.815Z,41.90
2024-05-09T08:53:12.958Z,42.90
2024-05-09T08:55:43.242Z,42.70
2024-05-09T08:58:20.471Z,42.70
2024-05-09T09:00:48.335Z,42.40
2024-05-09T09:03:19.202Z,42.70
2024-05-09T09:06:05.944Z,42.50
2024-05-09T09:08:32.921Z,42.20
2024-05-09T09:11:00.849Z,42.00
2024-05-09T09:13:28.210Z,42.40
2024-05-09T09:15:58.902Z,42.10
2024-05-09T09:18:27.784Z,42.40
2024-05-09T09:20:55.602Z,42.00
2024-05-09T09:23:22.944Z,41.70
2024-05-09T09:25:53.490Z,42.60
2024-05-09T09:28:23.230Z,41.50
2024-05-09T09:30:50.481Z,41.80
2024-05-09T09:33:17.996Z,42.30
2024-05-09T09:35:45.272Z,42.10
2024-05-09T09:38:15.773Z,41.70
2024-05-09T09:40:49.683Z,41.90
2024-05-09T09:43:22.877Z,41.30
2024-05-09T09:45:51.976Z,41.30
2024-05-09T09:48:21.391Z,40.90
2024-05-09T09:50:51.214Z,40.70
2024-05-09T09:53:19.001Z,40.30
2024-05-09T09:55:47.354Z,40.90
2024-05-09T09:58:17.567Z,41.20
2024-05-09T10:00:46.507Z,41.10
2024-05-09T10:03:13.801Z,41.00
2024-05-09T10:05:44.035Z,40.40
2024-05-09T10:08:14.288Z,40.30
2024-05-09T10:10:46.834Z,39.80
2024-05-09T10:13:14.241Z,39.80
2024-05-09T10:15:46.206Z,40.10
2024-05-09T10:18:14.229Z,40.10
2024-05-09T10:20:43.067Z,40.00
2024-05-09T10:23:29.176Z,40.80
2024-05-09T10:26:06.492Z,40.50
2024-05-09T10:28:36.138Z,40.60
2024-05-09T10:31:11.284Z,40.30
2024-05-09T10:33:46.368Z,39.70
2024-05-09T10:36:14.823Z,39.40
2024-05-09T10:38:44.299Z,38.90
2024-05-09T10:41:11.748Z,39.70
2024-05-09T10:43:41.051Z,39.60
2024-05-09T10:46:09.253Z,38.90
2024-05-09T10:48:37.663Z,39.30
2024-05-09T10:51:05.342Z,39.10
2024-05-09T10:53:43.608Z,39.80
2024-05-09T10:56:11.794Z,39.60
2024-05-09T10:58:39.213Z,40.00
2024-05-09T11:01:07.729Z,39.00
2024-05-09T11:03:36.413Z,39.50
2024-05-09T11:06:05.476Z,39.20
2024-05-09T11:08:39.631Z,39.30
2024-05-09T11:11:13.109Z,39.60
2024-05-09T11:13:41.158Z,39.60
2024-05-09T11:16:21.178Z,38.80
2024-05-09T11:18:58.219Z,39.00
2024-05-09T11:21:26.188Z,38.60
2024-05-09T11:24:01.253Z,38.70
2024-05-09T11:26:29.781Z,38.70
2024-05-09T11:28:56.835Z,38.10
2024-05-09T11:31:24.167Z,38.60
2024-05-09T11:33:54.833Z,37.90
2024-05-09T11:36:21.902Z,37.60
2024-05-09T11:38:49.003Z,37.90
2024-05-09T11:41:19.173Z,37.40
2024-05-09T11:43:46.246Z,38.20
2024-05-09T11:46:13.608Z,38.00
2024-05-09T11:48:40.963Z,37.10
2024-05-09T11:51:09.402Z,37.60
2024-05-09T11:53:36.351Z,36.80
2024-05-09T11:56:03.763Z,37.50
2024-05-09T11:58:34.876Z,37.40
2024-05-09T12:01:02.364Z,37.50
2024-05-09T12:03:30.191Z,37.20
2024-05-09T12:05:57.633Z,36.40
2024-05-09T12:08:24.775Z,36.80
2024-05-09T12:10:52.041Z,37.50
2024-05-09T12:13:19.544Z,37.10
2024-05-09T12:15:46.605Z,36.90
2024-05-09T12:18:13.704Z,36.80
2024-05-09T12:20:40.828Z,37.60
2024-05-09T12:23:10.179Z,37.50
2024-05-09T12:25:38.605Z,37.80
2024-05-09T12:28:07.347Z,37.60
2024-05-09T12:30:38.794Z,38.20
2024-05-09T12:33:12.735Z,37.00
2024-05-09T12:35:41.778Z,36.30
2024-05-09T12:38:10.146Z,37.20
2024-05-09T12:40:38.942Z,36.80
2024-05-09T12:43:08.594Z,37.30
2024-05-09T12:45:37.425Z,37.30
2024-05-09T12:48:07.550Z,37.50
2024-05-09T12:50:35.459Z,36.50
2024-05-09T12:53:04.212Z,36.60
2024-05-09T12:55:40.511Z,37.00
2024-05-09T12:58:18.631Z,37.70
2024-05-09T13:00:46.399Z,37.10
2024-05-09T13:03:14.067Z,37.30
2024-05-09T13:05:41.842Z,37.90
2024-05-09T13:08:09.325Z,37.20
2024-05-09T13:10:37.089Z,37.10
2024-05-09T13:13:04.723Z,37.50
2024-05-09T13:15:34.586Z,37.10
2024-05-09T13:18:03.527Z,37.50
2024-05-09T13:20:34.154Z,36.80
2024-05-09T13:23:07.999Z,37.60
2024-05-09T13:25:36.488Z,37.10
2024-05-09T13:28:04.929Z,37.10
2024-05-09T13:30:39.463Z,37.40
2024-05-09T13:33:11.121Z,37.20
2024-05-09T13:35:39.809Z,37.50
2024-05-09T13:38:07.808Z,36.80
2024-05-09T13:40:36.408Z,36.00
2024-05-09T13:43:06.813Z,36.00
2024-05-09T13:45:34.425Z,36.30
2024-05-09T13:48:06.760Z,36.20
2024-05-09T13:50:36.336Z,35.90
2024-05-09T13:53:08.325Z,35.80
2024-05-09T13:55:38.628Z,36.20
2024-05-09T13:58:06.411Z,36.50
2024-05-09T14:00:44.020Z,36.80
2024-05-09T14:03:18.385Z,37.00
2024-05-09T14:05:47.247Z,36.80
2024-05-09T14:08:16.108Z,37.10
2024-05-09T14:10:46.617Z,36.80
2024-05-09T14:13:14.494Z,36.10
2024-05-09T14:15:41.840Z,36.30
2024-05-09T14:18:12.692Z,36.20
2024-05-09T14:20:41.806Z,37.40
2024-05-09T14:23:09.147Z,36.70
2024-05-09T14:25:40.351Z,36.40
2024-05-09T14:28:10.058Z,36.00
2024-05-09T14:30:38.577Z,36.60
2024-05-09T14:33:07.466Z,36.40
2024-05-09T14:35:35.604Z,36.20
2024-05-09T14:38:03.077Z,36.30
2024-05-09T14:40:40.510Z,35.60
2024-05-09T14:43:12.073Z,35.50
2024-05-09T14:45:39.860Z,35.80
2024-05-09T14:48:07.792Z,35.10
2024-05-09T14:50:38.477Z,34.80
2024-05-09T14:53:11.775Z,34.10
2024-05-09T14:55:41.736Z,34.60
2024-05-09T14:58:11.099Z,34.90
2024-05-09T15:00:45.815Z,34.20
2024-05-09T15:03:17.167Z,34.30
2024-05-09T15:05:45.178Z,35.20
2024-05-09T15:08:12.453Z,34.90
2024-05-09T15:10:39.741Z,34.50
2024-05-09T15:13:08.820Z,35.10
2024-05-09T15:15:37.688Z,35.70
2024-05-09T15:18:05.864Z,35.50
2024-05-09T15:20:36.224Z,35.70
2024-05-09T15:23:06.387Z,35.60
2024-05-09T15:25:34.828Z,36.00
2024-05-09T15:28:03.768Z,36.10
2024-05-09T15:30:33.183Z,36.50
2024-05-09T15:33:05.768Z,36.60
2024-05-09T15:35:34.039Z,37.30
2024-05-09T15:38:03.232Z,36.90
2024-05-09T15:40:37.822Z,37.20
2024-05-09T15:43:09.319Z,36.90
2024-05-09T15:45:37.809Z,36.60
2024-05-09T15:48:05.757Z,36.00
2024-05-09T15:50:38.676Z,36.00
2024-05-09T15:53:10.015Z,35.50
2024-05-09T15:55:37.911Z,35.50
2024-05-09T15:58:06.457Z,36.20
2024-05-09T16:00:38.948Z,36.20
2024-05-09T16:03:13.898Z,35.90
2024-05-09T16:05:45.560Z,36.60
2024-05-09T16:08:15.029Z,37.10
2024-05-09T16:10:44.376Z,36.50
2024-05-09T16:13:12.808Z,36.50
2024-05-09T16:15:40.328Z,36.30
2024-05-09T16:18:07.972Z,36.30
2024-05-09T16:20:40.071Z,36.60
2024-05-09T16:23:09.752Z,36.90
2024-05-09T16:25:37.302Z,37.00
2024-05-09T16:28:08.750Z,37.20
2024-05-09T16:30:40.938Z,37.70
2024-05-09T16:33:09.124Z,38.30
2024-05-09T16:35:37.850Z,38.20
2024-05-09T16:38:06.196Z,37.90
2024-05-09T16:40:38.167Z,38.30
2024-05-09T16:43:08.824Z,39.00
2024-05-09T16:45:44.683Z,39.10
2024-05-09T16:48:13.440Z,39.20
2024-05-09T16:50:40.678Z,39.30
2024-05-09T16:53:08.648Z,39.30
2024-05-09T16:55:36.448Z,39.20
2024-05-09T16:58:04.440Z,39.40
2024-05-09T17:00:39.966Z,39.40
2024-05-09T17:03:14.774Z,39.70
2024-05-09T17:05:47.222Z,39.50
2024-05-09T17:08:16.882Z,39.70
2024-05-09T17:10:46.117Z,40.00
2024-05-09T17:13:13.407Z,40.00
2024-05-09T17:15:40.946Z,39.60
2024-05-09T17:18:08.772Z,40.10
2024-05-09T17:20:37.566Z,40.30
2024-05-09T17:23:13.568Z,40.50
2024-05-09T17:25:42.149Z,40.60
2024-05-09T17:28:13.121Z,40.90
2024-05-09T17:30:42.175Z,41.80
2024-05-09T17:33:11.202Z,42.00
2024-05-09T17:35:40.866Z,42.00
2024-05-09T17:38:08.189Z,42.20
2024-05-09T17:40:37.390Z,42.70
2024-05-09T17:43:06.937Z,42.90
2024-05-09T17:45:37.736Z,42.60
2024-05-09T17:48:05.649Z,42.90
2024-05-09T17:50:36.090Z,43.20
2024-05-09T17:53:06.149Z,43.20
2024-05-09T17:55:33.840Z,43.60
2024-05-09T17:58:01.856Z,44.00
2024-05-09T18:00:37.205Z,43.60
2024-05-09T18:03:08.818Z,43.70
2024-05-09T18:05:37.250Z,43.50
2024-05-09T18:08:06.214Z,44.40
2024-05-09T18:10:37.773Z,44.30
2024-05-09T18:13:08.502Z,44.30
2024-05-09T18:15:36.404Z,44.70
2024-05-09T18:18:04.440Z,44.90
2024-05-09T18:20:40.303Z,45.10
2024-05-09T18:23:11.861Z,45.10
2024-05-09T18:25:38.924Z,45.40
2024-05-09T18:28:06.692Z,45.60
2024-05-09T18:30:36.306Z,45.60
2024-05-09T18:33:07.795Z,45.70
2024-05-09T18:35:36.480Z,45.90
2024-05-09T18:38:04.977Z,46.50
2024-05-09T18:40:35.791Z,46.10
2024-05-09T18:43:07.524Z,46.20
2024-05-09T18:45:39.351Z,46.50
2024-05-09T18:48:08.501Z,47.00
2024-05-09T18:50:39.270Z,46.90
2024-05-09T18:53:08.961Z,46.70
2024-05-09T18:55:36.269Z,47.10
2024-05-09T18:58:04.566Z,46.60
2024-05-09T19:00:36.232Z,47.00
2024-05-09T19:03:12.260Z,46.70
2024-05-09T19:05:42.603Z,46.00
2024-05-09T19:08:10.600Z,46.60
2024-05-09T19:10:39.348Z,46.60
2024-05-09T19:13:11.191Z,46.80
2024-05-09T19:15:41.643Z,47.20
2024-05-09T19:18:30.972Z,47.30
2024-05-09T19:20:58.942Z,47.60
2024-05-09T19:23:26.027Z,47.70
2024-05-09T19:25:53.159Z,47.90
2024-05-09T19:28:20.419Z,48.00
2024-05-09T19:30:47.767Z,47.30
2024-05-09T19:33:15.146Z,47.20
2024-05-09T19:35:42.958Z,46.50
2024-05-09T19:38:10.738Z,46.50
2024-05-09T19:40:38.019Z,46.60
2024-05-09T19:43:06.465Z,46.20
2024-05-09T19:45:35.267Z,45.70
2024-05-09T19:48:03.930Z,45.80
2024-05-09T19:50:37.865Z,46.10
2024-05-09T19:53:10.925Z,46.30
2024-05-09T19:55:39.628Z,45.60
2024-05-09T19:58:07.831Z,45.70
2024-05-09T20:00:38.636Z,45.80
2024-05-09T20:03:08.505Z,45.70
2024-05-09T20:05:36.980Z,46.10
2024-05-09T20:08:04.935Z,46.00
2024-05-09T20:10:34.461Z,46.20
2024-05-09T20:13:03.774Z,46.20
2024-05-09T20:15:35.798Z,46.20
2024-05-09T20:18:03.778Z,46.80
2024-05-09T20:20:37.169Z,46.40
2024-05-09T20:23:08.979Z,47.10
2024-05-09T20:25:36.462Z,47.70
2024-05-09T20:28:03.824Z,47.50
2024-05-09T20:30:33.167Z,47.20
2024-05-09T20:33:07.344Z,47.70
2024-05-09T20:35:36.383Z,47.50
2024-05-09T20:38:04.378Z,47.10
2024-05-09T20:40:36.002Z,46.70
2024-05-09T20:43:06.831Z,46.70
2024-05-09T20:45:34.873Z,47.80
2024-05-09T20:48:02.555Z,47.70
2024-05-09T20:50:37.316Z,47.30
2024-05-09T20:53:13.169Z,47.20
2024-05-09T20:55:41.837Z,47.30
2024-05-09T20:58:09.827Z,46.70
2024-05-09T21:00:40.809Z,46.70
2024-05-09T21:03:11.906Z,47.00
2024-05-09T21:05:39.782Z,47.00
2024-05-09T21:08:07.775Z,46.40
2024-05-09T21:10:36.251Z,46.90
2024-05-09T21:13:04.294Z,47.00
2024-05-09T21:15:32.053Z,46.50
2024-05-09T21:17:59.503Z,46.60
2024-05-09T21:20:31.623Z,46.50
2024-05-09T21:23:00.960Z,46.90
2024-05-09T21:25:28.188Z,46.70
2024-05-09T21:27:55.528Z,47.10
2024-05-09T21:30:32.142Z,47.00
2024-05-09T21:33:09.803Z,47.00
2024-05-09T21:35:38.284Z,46.90
2024-05-09T21:38:05.838Z,47.00
2024-05-09T21:40:35.305Z,46.80
2024-05-09T21:43:04.611Z,46.50
2024-05-09T21:45:32.113Z,46.50
2024-05-09T21:47:59.264Z,46.40
2024-05-09T21:50:36.110Z,46.40
2024-05-09T21:53:07.549Z,46.60
2024-05-09T21:55:34.870Z,46.30
2024-05-09T21:58:02.505Z,46.40
2024-05-09T22:00:36.010Z,46.30
2024-05-09T22:03:06.877Z,46.30
2024-05-09T22:05:34.617Z,46.60
2024-05-09T22:08:01.829Z,46.30
2024-05-09T22:10:33.961Z,46.10
2024-05-09T22:13:04.157Z,46.20
2024-05-09T22:15:35.683Z,46.30
2024-05-09T22:18:03.696Z,46.10
2024-05-09T22:20:36.877Z,46.00
2024-05-09T22:23:06.461Z,46.10
2024-05-09T22:25:33.794Z,46.80
2024-05-09T22:28:02.099Z,46.50
2024-05-09T22:32:59.335Z,46.50
2024-05-09T22:35:26.519Z,46.50
2024-05-09T22:37:53.674Z,46.60
2024-05-09T22:40:28.436Z,46.60
2024-05-09T22:43:04.856Z,46.90
2024-05-09T22:45:32.008Z,46.90
2024-05-09T22:47:59.484Z,46.80
2024-05-09T22:50:30.624Z,47.10
2024-05-09T22:52:59.682Z,47.10
2024-05-09T22:55:26.617Z,47.00
2024-05-09T22:57:53.568Z,47.20
2024-05-09T23:00:29.198Z,47.70
2024-05-09T23:02:59.906Z,47.30
2024-05-09T23:05:27.421Z,47.20
2024-05-09T23:07:54.587Z,47.10
2024-05-09T23:10:28.323Z,47.50
2024-05-09T23:13:01.993Z,47.20
2024-05-09T23:15:29.238Z,47.60
2024-05-09T23:17:57.685Z,47.60
2024-05-09T23:20:33.926Z,47.80
2024-05-09T23:23:06.509Z,47.50
2024-05-09T23:25:33.976Z,47.90
2024-05-09T23:28:01.241Z,47.50
2024-05-09T23:30:34.853Z,47.90
2024-05-09T23:33:06.169Z,47.60
2024-05-09T23:35:33.356Z,47.80
2024-05-09T23:38:00.431Z,48.10
2024-05-09T23:40:37.406Z,48.40
2024-05-09T23:43:07.728Z,48.30
2024-05-09T23:45:35.088Z,48.20
2024-05-09T23:48:02.845Z,48.30
2024-05-09T23:50:35.923Z,48.40
2024-05-09T23:53:07.031Z,48.80
2024-05-09T23:55:35.338Z,48.70
2024-05-09T23:58:02.510Z,48.60
